sensor_id;sensor_type;location;lat;lon;timestamp;temperature;humidity
72206;DHT22;60111;48.286;7.812;2023-04-15T00:01:00;7.30;62.60
72206;DHT22;60111;48.286;7.812;2023-04-15T00:03:34;7.30;62.80
72206;DHT22;60111;48.286;7.812;2023-04-15T00:06:07;7.30;63.50
72206;DHT22;60111;48.286;7.812;2023-04-15T00:08:40;7.20;63.30
72206;DHT22;60111;48.286;7.812;2023-04-15T00:11:13;7.10;63.70
72206;DHT22;60111;48.286;7.812;2023-04-15T00:13:46;7.10;64.00
72206;DHT22;60111;48.286;7.812;2023-04-15T00:16:19;7.10;64.10
72206;DHT22;60111;48.286;7.812;2023-04-15T00:18:51;7.10;63.80
72206;DHT22;60111;48.286;7.812;2023-04-15T00:21:24;7.10;63.70
72206;DHT22;60111;48.286;7.812;2023-04-15T00:23:58;7.10;63.60
72206;DHT22;60111;48.286;7.812;2023-04-15T00:26:32;7.00;63.50
72206;DHT22;60111;48.286;7.812;2023-04-15T00:29:06;6.90;63.40
72206;DHT22;60111;48.286;7.812;2023-04-15T00:31:38;6.90;63.70
72206;DHT22;60111;48.286;7.812;2023-04-15T00:34:11;6.90;64.20
72206;DHT22;60111;48.286;7.812;2023-04-15T00:36:44;6.90;64.60
72206;DHT22;60111;48.286;7.812;2023-04-15T00:39:17;6.90;64.50
72206;DHT22;60111;48.286;7.812;2023-04-15T00:41:50;6.90;65.10
72206;DHT22;60111;48.286;7.812;2023-04-15T00:44:23;6.80;65.20
72206;DHT22;60111;48.286;7.812;2023-04-15T00:46:56;6.70;65.50
72206;DHT22;60111;48.286;7.812;2023-04-15T00:49:30;6.70;65.70
72206;DHT22;60111;48.286;7.812;2023-04-15T00:52:03;6.60;65.60
72206;DHT22;60111;48.286;7.812;2023-04-15T00:54:36;6.50;65.50
72206;DHT22;60111;48.286;7.812;2023-04-15T00:57:08;6.50;64.80
72206;DHT22;60111;48.286;7.812;2023-04-15T00:59:41;6.50;65.10
72206;DHT22;60111;48.286;7.812;2023-04-15T01:02:14;6.50;64.40
72206;DHT22;60111;48.286;7.812;2023-04-15T01:04:47;6.50;64.40
72206;DHT22;60111;48.286;7.812;2023-04-15T01:07:19;6.50;64.20
72206;DHT22;60111;48.286;7.812;2023-04-15T01:09:52;6.80;64.00
72206;DHT22;60111;48.286;7.812;2023-04-15T01:12:26;6.80;63.70
72206;DHT22;60111;48.286;7.812;2023-04-15T01:14:59;6.70;63.90
72206;DHT22;60111;48.286;7.812;2023-04-15T01:17:33;6.80;64.20
72206;DHT22;60111;48.286;7.812;2023-04-15T01:20:06;6.80;64.50
72206;DHT22;60111;48.286;7.812;2023-04-15T01:22:41;6.90;63.90
72206;DHT22;60111;48.286;7.812;2023-04-15T01:25:18;7.00;64.30
72206;DHT22;60111;48.286;7.812;2023-04-15T01:27:51;7.10;63.60
72206;DHT22;60111;48.286;7.812;2023-04-15T01:30:24;7.10;64.00
72206;DHT22;60111;48.286;7.812;2023-04-15T01:32:57;7.10;65.00
72206;DHT22;60111;48.286;7.812;2023-04-15T01:35:31;7.00;64.70
72206;DHT22;60111;48.286;7.812;2023-04-15T01:38:05;7.00;65.10
72206;DHT22;60111;48.286;7.812;2023-04-15T01:40:37;6.90;65.80
72206;DHT22;60111;48.286;7.812;2023-04-15T01:43:11;6.90;66.10
72206;DHT22;60111;48.286;7.812;2023-04-15T01:45:44;6.80;66.30
72206;DHT22;60111;48.286;7.812;2023-04-15T01:48:17;6.90;66.50
72206;DHT22;60111;48.286;7.812;2023-04-15T01:50:51;6.90;66.10
72206;DHT22;60111;48.286;7.812;2023-04-15T01:53:24;6.80;66.30
72206;DHT22;60111;48.286;7.812;2023-04-15T01:55:57;6.80;66.90
72206;DHT22;60111;48.286;7.812;2023-04-15T01:58:30;6.60;67.10
72206;DHT22;60111;48.286;7.812;2023-04-15T02:01:03;6.60;66.00
72206;DHT22;60111;48.286;7.812;2023-04-15T02:03:37;6.50;66.20
72206;DHT22;60111;48.286;7.812;2023-04-15T02:06:10;6.40;66.70
72206;DHT22;60111;48.286;7.812;2023-04-15T02:08:42;6.50;66.10
72206;DHT22;60111;48.286;7.812;2023-04-15T02:11:15;6.50;67.00
72206;DHT22;60111;48.286;7.812;2023-04-15T02:13:47;6.70;66.70
72206;DHT22;60111;48.286;7.812;2023-04-15T02:16:21;6.70;66.70
72206;DHT22;60111;48.286;7.812;2023-04-15T02:18:53;6.80;66.10
72206;DHT22;60111;48.286;7.812;2023-04-15T02:21:26;6.80;66.10
72206;DHT22;60111;48.286;7.812;2023-04-15T02:23:59;6.90;65.10
72206;DHT22;60111;48.286;7.812;2023-04-15T02:26:32;6.90;65.00
72206;DHT22;60111;48.286;7.812;2023-04-15T02:29:05;6.90;65.30
72206;DHT22;60111;48.286;7.812;2023-04-15T02:31:39;7.00;65.80
72206;DHT22;60111;48.286;7.812;2023-04-15T02:34:12;6.80;66.00
72206;DHT22;60111;48.286;7.812;2023-04-15T02:36:45;6.90;65.90
72206;DHT22;60111;48.286;7.812;2023-04-15T02:39:19;6.90;66.20
72206;DHT22;60111;48.286;7.812;2023-04-15T02:41:52;6.80;66.30
72206;DHT22;60111;48.286;7.812;2023-04-15T02:44:24;6.80;66.00
72206;DHT22;60111;48.286;7.812;2023-04-15T02:46:58;6.70;66.20
72206;DHT22;60111;48.286;7.812;2023-04-15T02:49:32;6.70;66.60
72206;DHT22;60111;48.286;7.812;2023-04-15T02:52:05;6.80;66.30
72206;DHT22;60111;48.286;7.812;2023-04-15T02:54:38;6.80;66.30
72206;DHT22;60111;48.286;7.812;2023-04-15T02:57:10;6.80;66.50
72206;DHT22;60111;48.286;7.812;2023-04-15T02:59:43;6.80;66.70
72206;DHT22;60111;48.286;7.812;2023-04-15T03:02:16;6.80;66.10
72206;DHT22;60111;48.286;7.812;2023-04-15T03:04:49;6.80;65.90
72206;DHT22;60111;48.286;7.812;2023-04-15T03:07:21;6.80;66.50
72206;DHT22;60111;48.286;7.812;2023-04-15T03:09:54;6.80;66.70
72206;DHT22;60111;48.286;7.812;2023-04-15T03:12:26;6.80;66.70
72206;DHT22;60111;48.286;7.812;2023-04-15T03:15:01;6.80;67.00
72206;DHT22;60111;48.286;7.812;2023-04-15T03:17:34;6.80;67.60
72206;DHT22;60111;48.286;7.812;2023-04-15T03:20:07;6.80;67.90
72206;DHT22;60111;48.286;7.812;2023-04-15T03:22:39;6.70;68.10
72206;DHT22;60111;48.286;7.812;2023-04-15T03:25:12;6.60;68.00
72206;DHT22;60111;48.286;7.812;2023-04-15T03:27:45;6.50;68.20
72206;DHT22;60111;48.286;7.812;2023-04-15T03:30:17;6.60;68.30
72206;DHT22;60111;48.286;7.812;2023-04-15T03:32:50;6.70;67.80
72206;DHT22;60111;48.286;7.812;2023-04-15T03:35:22;6.80;67.70
72206;DHT22;60111;48.286;7.812;2023-04-15T03:37:55;6.70;67.50
72206;DHT22;60111;48.286;7.812;2023-04-15T03:40:27;6.70;67.80
72206;DHT22;60111;48.286;7.812;2023-04-15T03:43:01;6.60;68.30
72206;DHT22;60111;48.286;7.812;2023-04-15T03:45:34;6.70;68.20
72206;DHT22;60111;48.286;7.812;2023-04-15T03:48:07;6.80;68.50
72206;DHT22;60111;48.286;7.812;2023-04-15T03:50:39;6.80;68.20
72206;DHT22;60111;48.286;7.812;2023-04-15T03:53:12;6.90;68.90
72206;DHT22;60111;48.286;7.812;2023-04-15T03:55:45;7.10;69.40
72206;DHT22;60111;48.286;7.812;2023-04-15T03:58:17;7.00;68.80
72206;DHT22;60111;48.286;7.812;2023-04-15T04:00:51;7.00;69.10
72206;DHT22;60111;48.286;7.812;2023-04-15T04:03:24;6.90;69.10
72206;DHT22;60111;48.286;7.812;2023-04-15T04:05:57;6.80;69.40
72206;DHT22;60111;48.286;7.812;2023-04-15T04:08:30;6.80;69.00
72206;DHT22;60111;48.286;7.812;2023-04-15T04:11:03;6.90;69.20
72206;DHT22;60111;48.286;7.812;2023-04-15T04:13:35;6.90;69.50
72206;DHT22;60111;48.286;7.812;2023-04-15T04:16:08;6.90;69.10
72206;DHT22;60111;48.286;7.812;2023-04-15T04:18:42;6.80;69.80
72206;DHT22;60111;48.286;7.812;2023-04-15T04:21:16;6.80;70.40
72206;DHT22;60111;48.286;7.812;2023-04-15T04:23:50;6.90;70.70
72206;DHT22;60111;48.286;7.812;2023-04-15T04:26:23;6.90;70.80
72206;DHT22;60111;48.286;7.812;2023-04-15T04:28:55;6.80;71.00
72206;DHT22;60111;48.286;7.812;2023-04-15T04:31:28;7.00;70.20
72206;DHT22;60111;48.286;7.812;2023-04-15T04:34:01;6.90;70.30
72206;DHT22;60111;48.286;7.812;2023-04-15T04:36:34;6.90;70.80
72206;DHT22;60111;48.286;7.812;2023-04-15T04:39:07;6.90;70.70
72206;DHT22;60111;48.286;7.812;2023-04-15T04:41:39;7.00;71.90
72206;DHT22;60111;48.286;7.812;2023-04-15T04:44:12;6.90;71.60
72206;DHT22;60111;48.286;7.812;2023-04-15T04:46:44;6.90;71.30
72206;DHT22;60111;48.286;7.812;2023-04-15T04:49:17;6.90;70.90
72206;DHT22;60111;48.286;7.812;2023-04-15T04:51:50;6.90;70.40
72206;DHT22;60111;48.286;7.812;2023-04-15T04:54:22;6.90;70.00
72206;DHT22;60111;48.286;7.812;2023-04-15T04:56:55;6.80;70.00
72206;DHT22;60111;48.286;7.812;2023-04-15T04:59:28;6.90;69.70
72206;DHT22;60111;48.286;7.812;2023-04-15T05:02:01;6.80;69.70
72206;DHT22;60111;48.286;7.812;2023-04-15T05:04:35;7.00;69.90
72206;DHT22;60111;48.286;7.812;2023-04-15T05:07:08;7.10;69.50
72206;DHT22;60111;48.286;7.812;2023-04-15T05:09:41;7.10;69.90
72206;DHT22;60111;48.286;7.812;2023-04-15T05:12:13;7.20;69.40
72206;DHT22;60111;48.286;7.812;2023-04-15T05:14:46;7.20;69.40
72206;DHT22;60111;48.286;7.812;2023-04-15T05:17:19;7.20;70.10
72206;DHT22;60111;48.286;7.812;2023-04-15T05:19:51;7.20;70.10
72206;DHT22;60111;48.286;7.812;2023-04-15T05:22:24;7.00;70.70
72206;DHT22;60111;48.286;7.812;2023-04-15T05:24:57;7.00;71.30
72206;DHT22;60111;48.286;7.812;2023-04-15T05:27:29;7.00;72.00
72206;DHT22;60111;48.286;7.812;2023-04-15T05:30:02;7.10;71.60
72206;DHT22;60111;48.286;7.812;2023-04-15T05:32:35;7.20;71.40
72206;DHT22;60111;48.286;7.812;2023-04-15T05:35:07;7.20;71.70
72206;DHT22;60111;48.286;7.812;2023-04-15T05:37:40;7.20;71.30
72206;DHT22;60111;48.286;7.812;2023-04-15T05:40:14;7.20;71.00
72206;DHT22;60111;48.286;7.812;2023-04-15T05:42:47;7.20;70.40
72206;DHT22;60111;48.286;7.812;2023-04-15T05:45:19;7.20;70.50
72206;DHT22;60111;48.286;7.812;2023-04-15T05:47:52;7.30;70.40
72206;DHT22;60111;48.286;7.812;2023-04-15T05:50:25;7.20;70.50
72206;DHT22;60111;48.286;7.812;2023-04-15T05:52:57;7.30;70.20
72206;DHT22;60111;48.286;7.812;2023-04-15T05:55:30;7.40;69.30
72206;DHT22;60111;48.286;7.812;2023-04-15T05:58:04;7.40;69.50
72206;DHT22;60111;48.286;7.812;2023-04-15T06:00:36;7.50;69.30
72206;DHT22;60111;48.286;7.812;2023-04-15T06:03:10;7.50;68.30
72206;DHT22;60111;48.286;7.812;2023-04-15T06:05:42;7.50;68.10
72206;DHT22;60111;48.286;7.812;2023-04-15T06:08:15;7.50;68.10
72206;DHT22;60111;48.286;7.812;2023-04-15T06:10:49;7.50;68.30
72206;DHT22;60111;48.286;7.812;2023-04-15T06:13:23;7.60;68.40
72206;DHT22;60111;48.286;7.812;2023-04-15T06:15:56;7.70;68.30
72206;DHT22;60111;48.286;7.812;2023-04-15T06:18:29;7.80;68.30
72206;DHT22;60111;48.286;7.812;2023-04-15T06:21:02;7.80;67.80
72206;DHT22;60111;48.286;7.812;2023-04-15T06:23:35;8.00;66.70
72206;DHT22;60111;48.286;7.812;2023-04-15T06:26:07;8.00;66.70
72206;DHT22;60111;48.286;7.812;2023-04-15T06:28:40;8.00;66.90
72206;DHT22;60111;48.286;7.812;2023-04-15T06:31:13;8.10;66.70
72206;DHT22;60111;48.286;7.812;2023-04-15T06:33:45;8.20;66.30
72206;DHT22;60111;48.286;7.812;2023-04-15T06:36:18;8.10;66.50
72206;DHT22;60111;48.286;7.812;2023-04-15T06:38:50;8.30;66.20
72206;DHT22;60111;48.286;7.812;2023-04-15T06:41:23;8.40;66.00
72206;DHT22;60111;48.286;7.812;2023-04-15T06:43:57;8.40;66.00
72206;DHT22;60111;48.286;7.812;2023-04-15T06:46:30;8.50;66.20
72206;DHT22;60111;48.286;7.812;2023-04-15T06:49:03;8.70;66.00
72206;DHT22;60111;48.286;7.812;2023-04-15T06:51:37;9.00;65.00
72206;DHT22;60111;48.286;7.812;2023-04-15T06:54:09;9.20;64.20
72206;DHT22;60111;48.286;7.812;2023-04-15T06:56:42;9.30;64.40
72206;DHT22;60111;48.286;7.812;2023-04-15T06:59:15;9.70;63.80
72206;DHT22;60111;48.286;7.812;2023-04-15T07:01:47;9.80;62.60
72206;DHT22;60111;48.286;7.812;2023-04-15T07:04:20;9.80;62.90
72206;DHT22;60111;48.286;7.812;2023-04-15T07:06:53;9.80;62.60
72206;DHT22;60111;48.286;7.812;2023-04-15T07:09:27;9.80;63.10
72206;DHT22;60111;48.286;7.812;2023-04-15T07:12:00;9.90;63.20
72206;DHT22;60111;48.286;7.812;2023-04-15T07:14:33;10.00;62.70
72206;DHT22;60111;48.286;7.812;2023-04-15T07:17:05;10.00;63.10
72206;DHT22;60111;48.286;7.812;2023-04-15T07:19:38;10.20;62.60
72206;DHT22;60111;48.286;7.812;2023-04-15T07:22:11;10.30;61.60
72206;DHT22;60111;48.286;7.812;2023-04-15T07:24:44;10.60;60.50
72206;DHT22;60111;48.286;7.812;2023-04-15T07:27:17;11.00;58.20
72206;DHT22;60111;48.286;7.812;2023-04-15T07:29:50;11.50;56.90
72206;DHT22;60111;48.286;7.812;2023-04-15T07:32:22;12.30;54.00
72206;DHT22;60111;48.286;7.812;2023-04-15T07:34:55;13.20;51.10
72206;DHT22;60111;48.286;7.812;2023-04-15T07:37:28;13.90;49.90
72206;DHT22;60111;48.286;7.812;2023-04-15T07:40:01;14.20;49.60
72206;DHT22;60111;48.286;7.812;2023-04-15T07:42:35;14.10;49.10
72206;DHT22;60111;48.286;7.812;2023-04-15T07:45:09;13.80;49.20
72206;DHT22;60111;48.286;7.812;2023-04-15T07:47:41;13.50;50.80
72206;DHT22;60111;48.286;7.812;2023-04-15T07:50:14;13.30;52.00
72206;DHT22;60111;48.286;7.812;2023-04-15T07:52:52;13.20;52.60
72206;DHT22;60111;48.286;7.812;2023-04-15T07:55:22;13.00;52.60
72206;DHT22;60111;48.286;7.812;2023-04-15T07:57:55;12.90;53.00
72206;DHT22;60111;48.286;7.812;2023-04-15T08:00:28;12.90;53.30
72206;DHT22;60111;48.286;7.812;2023-04-15T08:03:01;12.90;53.30
72206;DHT22;60111;48.286;7.812;2023-04-15T08:05:34;12.80;53.90
72206;DHT22;60111;48.286;7.812;2023-04-15T08:08:07;12.70;53.50
72206;DHT22;60111;48.286;7.812;2023-04-15T08:10:39;12.80;54.10
72206;DHT22;60111;48.286;7.812;2023-04-15T08:13:12;12.80;54.30
72206;DHT22;60111;48.286;7.812;2023-04-15T08:15:44;12.90;54.20
72206;DHT22;60111;48.286;7.812;2023-04-15T08:18:17;12.80;54.90
72206;DHT22;60111;48.286;7.812;2023-04-15T08:20:49;12.90;54.50
72206;DHT22;60111;48.286;7.812;2023-04-15T08:23:22;13.10;54.50
72206;DHT22;60111;48.286;7.812;2023-04-15T08:25:55;13.50;54.10
72206;DHT22;60111;48.286;7.812;2023-04-15T08:28:28;13.90;53.00
72206;DHT22;60111;48.286;7.812;2023-04-15T08:31:01;14.20;51.50
72206;DHT22;60111;48.286;7.812;2023-04-15T08:33:34;14.40;51.10
72206;DHT22;60111;48.286;7.812;2023-04-15T08:36:07;15.10;50.50
72206;DHT22;60111;48.286;7.812;2023-04-15T08:38:41;16.10;48.40
72206;DHT22;60111;48.286;7.812;2023-04-15T08:41:23;17.30;46.00
72206;DHT22;60111;48.286;7.812;2023-04-15T08:44:01;18.60;42.40
72206;DHT22;60111;48.286;7.812;2023-04-15T08:46:34;20.00;39.60
72206;DHT22;60111;48.286;7.812;2023-04-15T08:49:10;20.50;38.60
72206;DHT22;60111;48.286;7.812;2023-04-15T08:51:45;20.40;38.50
72206;DHT22;60111;48.286;7.812;2023-04-15T08:54:18;20.20;38.50
72206;DHT22;60111;48.286;7.812;2023-04-15T08:56:51;19.50;38.60
72206;DHT22;60111;48.286;7.812;2023-04-15T08:59:25;18.60;39.60
72206;DHT22;60111;48.286;7.812;2023-04-15T09:01:58;18.10;41.40
72206;DHT22;60111;48.286;7.812;2023-04-15T09:04:32;18.50;40.60
72206;DHT22;60111;48.286;7.812;2023-04-15T09:07:05;18.50;41.70
72206;DHT22;60111;48.286;7.812;2023-04-15T09:09:38;18.40;41.80
72206;DHT22;60111;48.286;7.812;2023-04-15T09:12:12;18.60;41.80
72206;DHT22;60111;48.286;7.812;2023-04-15T09:14:45;19.10;41.20
72206;DHT22;60111;48.286;7.812;2023-04-15T09:17:19;19.60;40.20
72206;DHT22;60111;48.286;7.812;2023-04-15T09:20:09;19.90;39.50
72206;DHT22;60111;48.286;7.812;2023-04-15T09:22:45;19.70;40.00
72206;DHT22;60111;48.286;7.812;2023-04-15T09:28:00;21.90;37.00
72206;DHT22;60111;48.286;7.812;2023-04-15T09:30:33;22.40;35.90
72206;DHT22;60111;48.286;7.812;2023-04-15T09:33:06;22.50;35.60
72206;DHT22;60111;48.286;7.812;2023-04-15T09:35:40;21.90;36.50
72206;DHT22;60111;48.286;7.812;2023-04-15T09:38:13;22.00;36.40
72206;DHT22;60111;48.286;7.812;2023-04-15T09:40:45;22.10;35.90
72206;DHT22;60111;48.286;7.812;2023-04-15T09:43:18;22.00;35.40
72206;DHT22;60111;48.286;7.812;2023-04-15T09:45:54;21.70;36.50
72206;DHT22;60111;48.286;7.812;2023-04-15T09:48:26;21.40;36.70
72206;DHT22;60111;48.286;7.812;2023-04-15T09:51:01;21.20;36.90
72206;DHT22;60111;48.286;7.812;2023-04-15T09:53:35;20.90;36.60
72206;DHT22;60111;48.286;7.812;2023-04-15T09:56:08;20.90;37.40
72206;DHT22;60111;48.286;7.812;2023-04-15T09:58:42;20.60;37.80
72206;DHT22;60111;48.286;7.812;2023-04-15T10:01:17;20.60;38.10
72206;DHT22;60111;48.286;7.812;2023-04-15T10:03:50;20.70;37.40
72206;DHT22;60111;48.286;7.812;2023-04-15T10:06:25;20.80;37.80
72206;DHT22;60111;48.286;7.812;2023-04-15T10:08:59;20.80;37.10
72206;DHT22;60111;48.286;7.812;2023-04-15T10:11:33;20.50;37.20
72206;DHT22;60111;48.286;7.812;2023-04-15T10:14:07;20.40;37.10
72206;DHT22;60111;48.286;7.812;2023-04-15T10:16:39;20.20;36.60
72206;DHT22;60111;48.286;7.812;2023-04-15T10:19:15;20.10;37.20
72206;DHT22;60111;48.286;7.812;2023-04-15T10:21:49;20.10;36.90
72206;DHT22;60111;48.286;7.812;2023-04-15T10:24:23;19.90;37.70
72206;DHT22;60111;48.286;7.812;2023-04-15T10:26:57;20.00;36.50
72206;DHT22;60111;48.286;7.812;2023-04-15T10:29:30;20.00;36.50
72206;DHT22;60111;48.286;7.812;2023-04-15T10:32:04;20.00;36.50
72206;DHT22;60111;48.286;7.812;2023-04-15T10:34:37;20.00;36.60
72206;DHT22;60111;48.286;7.812;2023-04-15T10:37:10;20.10;36.40
72206;DHT22;60111;48.286;7.812;2023-04-15T10:39:43;19.90;37.00
72206;DHT22;60111;48.286;7.812;2023-04-15T10:42:17;19.90;37.00
72206;DHT22;60111;48.286;7.812;2023-04-15T10:44:55;20.10;36.70
72206;DHT22;60111;48.286;7.812;2023-04-15T10:47:28;20.20;36.80
72206;DHT22;60111;48.286;7.812;2023-04-15T10:50:01;20.20;37.40
72206;DHT22;60111;48.286;7.812;2023-04-15T10:52:34;20.40;36.80
72206;DHT22;60111;48.286;7.812;2023-04-15T10:55:20;20.50;35.80
72206;DHT22;60111;48.286;7.812;2023-04-15T10:57:52;20.50;35.70
72206;DHT22;60111;48.286;7.812;2023-04-15T11:00:30;20.60;35.80
72206;DHT22;60111;48.286;7.812;2023-04-15T11:03:07;20.80;35.80
72206;DHT22;60111;48.286;7.812;2023-04-15T11:05:52;20.60;35.90
72206;DHT22;60111;48.286;7.812;2023-04-15T11:09:03;20.70;36.30
72206;DHT22;60111;48.286;7.812;2023-04-15T11:11:21;20.80;35.90
72206;DHT22;60111;48.286;7.812;2023-04-15T11:13:55;20.70;36.90
72206;DHT22;60111;48.286;7.812;2023-04-15T11:16:28;20.50;38.00
72206;DHT22;60111;48.286;7.812;2023-04-15T11:19:01;20.50;37.40
72206;DHT22;60111;48.286;7.812;2023-04-15T11:21:34;20.50;37.80
72206;DHT22;60111;48.286;7.812;2023-04-15T11:24:07;20.50;38.00
72206;DHT22;60111;48.286;7.812;2023-04-15T11:26:39;20.40;36.50
72206;DHT22;60111;48.286;7.812;2023-04-15T11:29:16;20.30;36.90
72206;DHT22;60111;48.286;7.812;2023-04-15T11:31:49;20.10;36.50
72206;DHT22;60111;48.286;7.812;2023-04-15T11:34:25;20.00;37.80
72206;DHT22;60111;48.286;7.812;2023-04-15T11:36:57;19.90;37.30
72206;DHT22;60111;48.286;7.812;2023-04-15T11:39:32;19.90;37.90
72206;DHT22;60111;48.286;7.812;2023-04-15T11:42:15;20.00;37.20
72206;DHT22;60111;48.286;7.812;2023-04-15T11:44:40;20.10;36.70
72206;DHT22;60111;48.286;7.812;2023-04-15T11:47:23;20.10;37.60
72206;DHT22;60111;48.286;7.812;2023-04-15T11:49:56;20.20;37.30
72206;DHT22;60111;48.286;7.812;2023-04-15T11:52:28;20.10;37.30
72206;DHT22;60111;48.286;7.812;2023-04-15T11:55:03;20.10;37.80
72206;DHT22;60111;48.286;7.812;2023-04-15T11:57:35;20.10;34.40
72206;DHT22;60111;48.286;7.812;2023-04-15T12:00:08;20.10;35.00
72206;DHT22;60111;48.286;7.812;2023-04-15T12:02:41;20.30;34.80
72206;DHT22;60111;48.286;7.812;2023-04-15T12:05:14;20.40;33.40
72206;DHT22;60111;48.286;7.812;2023-04-15T12:07:59;20.10;33.30
72206;DHT22;60111;48.286;7.812;2023-04-15T12:10:31;19.90;34.20
72206;DHT22;60111;48.286;7.812;2023-04-15T12:13:06;19.90;34.60
72206;DHT22;60111;48.286;7.812;2023-04-15T12:15:41;20.00;34.60
72206;DHT22;60111;48.286;7.812;2023-04-15T12:18:17;19.90;33.90
72206;DHT22;60111;48.286;7.812;2023-04-15T12:20:50;19.80;35.30
72206;DHT22;60111;48.286;7.812;2023-04-15T12:23:24;19.70;36.40
72206;DHT22;60111;48.286;7.812;2023-04-15T12:25:56;19.80;35.20
72206;DHT22;60111;48.286;7.812;2023-04-15T12:28:30;19.80;34.20
72206;DHT22;60111;48.286;7.812;2023-04-15T12:31:07;19.90;33.90
72206;DHT22;60111;48.286;7.812;2023-04-15T12:33:40;20.00;34.50
72206;DHT22;60111;48.286;7.812;2023-04-15T12:36:14;20.00;35.50
72206;DHT22;60111;48.286;7.812;2023-04-15T12:38:47;20.00;33.90
72206;DHT22;60111;48.286;7.812;2023-04-15T12:41:20;20.00;33.60
72206;DHT22;60111;48.286;7.812;2023-04-15T12:43:52;20.00;32.40
72206;DHT22;60111;48.286;7.812;2023-04-15T12:46:26;20.10;31.50
72206;DHT22;60111;48.286;7.812;2023-04-15T12:49:00;20.30;30.60
72206;DHT22;60111;48.286;7.812;2023-04-15T12:51:33;20.30;31.50
72206;DHT22;60111;48.286;7.812;2023-04-15T12:54:06;20.20;32.20
72206;DHT22;60111;48.286;7.812;2023-04-15T12:56:39;20.10;31.90
72206;DHT22;60111;48.286;7.812;2023-04-15T12:59:12;20.00;31.30
72206;DHT22;60111;48.286;7.812;2023-04-15T13:01:46;20.00;31.60
72206;DHT22;60111;48.286;7.812;2023-04-15T13:04:21;20.00;31.50
72206;DHT22;60111;48.286;7.812;2023-04-15T13:06:53;20.00;31.20
72206;DHT22;60111;48.286;7.812;2023-04-15T13:09:26;20.20;31.30
72206;DHT22;60111;48.286;7.812;2023-04-15T13:11:59;20.20;31.60
72206;DHT22;60111;48.286;7.812;2023-04-15T13:14:31;20.20;31.20
72206;DHT22;60111;48.286;7.812;2023-04-15T13:17:04;20.10;30.90
72206;DHT22;60111;48.286;7.812;2023-04-15T13:19:38;20.00;30.60
72206;DHT22;60111;48.286;7.812;2023-04-15T13:22:11;19.90;31.20
72206;DHT22;60111;48.286;7.812;2023-04-15T13:24:44;19.80;29.80
72206;DHT22;60111;48.286;7.812;2023-04-15T13:27:17;19.70;30.10
72206;DHT22;60111;48.286;7.812;2023-04-15T13:29:50;19.70;30.50
72206;DHT22;60111;48.286;7.812;2023-04-15T13:32:23;19.70;29.90
72206;DHT22;60111;48.286;7.812;2023-04-15T13:34:56;19.70;29.70
72206;DHT22;60111;48.286;7.812;2023-04-15T13:37:29;19.70;29.20
72206;DHT22;60111;48.286;7.812;2023-04-15T13:40:02;19.70;28.80
72206;DHT22;60111;48.286;7.812;2023-04-15T13:42:36;19.80;28.00
72206;DHT22;60111;48.286;7.812;2023-04-15T13:45:09;19.80;29.20
72206;DHT22;60111;48.286;7.812;2023-04-15T13:47:42;19.70;29.50
72206;DHT22;60111;48.286;7.812;2023-04-15T13:50:14;19.70;28.20
72206;DHT22;60111;48.286;7.812;2023-04-15T13:52:47;19.80;28.30
72206;DHT22;60111;48.286;7.812;2023-04-15T13:55:19;19.80;28.60
72206;DHT22;60111;48.286;7.812;2023-04-15T13:57:52;19.70;28.40
72206;DHT22;60111;48.286;7.812;2023-04-15T14:00:25;19.60;28.80
72206;DHT22;60111;48.286;7.812;2023-04-15T14:02:57;19.50;29.50
72206;DHT22;60111;48.286;7.812;2023-04-15T14:05:30;19.50;28.40
72206;DHT22;60111;48.286;7.812;2023-04-15T14:08:04;19.40;28.30
72206;DHT22;60111;48.286;7.812;2023-04-15T14:10:37;19.40;27.00
72206;DHT22;60111;48.286;7.812;2023-04-15T14:13:10;19.30;27.40
72206;DHT22;60111;48.286;7.812;2023-04-15T14:15:42;19.10;27.20
72206;DHT22;60111;48.286;7.812;2023-04-15T14:18:16;19.10;27.40
72206;DHT22;60111;48.286;7.812;2023-04-15T14:20:49;19.20;27.30
72206;DHT22;60111;48.286;7.812;2023-04-15T14:23:22;19.10;27.10
72206;DHT22;60111;48.286;7.812;2023-04-15T14:25:55;19.10;28.50
72206;DHT22;60111;48.286;7.812;2023-04-15T14:28:29;19.20;28.30
72206;DHT22;60111;48.286;7.812;2023-04-15T14:31:02;19.20;29.30
72206;DHT22;60111;48.286;7.812;2023-04-15T14:33:35;19.20;30.20
72206;DHT22;60111;48.286;7.812;2023-04-15T14:36:08;19.30;30.40
72206;DHT22;60111;48.286;7.812;2023-04-15T14:38:41;19.40;30.10
72206;DHT22;60111;48.286;7.812;2023-04-15T14:41:14;19.40;29.00
72206;DHT22;60111;48.286;7.812;2023-04-15T14:43:46;19.30;30.20
72206;DHT22;60111;48.286;7.812;2023-04-15T14:46:19;19.10;30.20
72206;DHT22;60111;48.286;7.812;2023-04-15T14:48:52;19.00;30.30
72206;DHT22;60111;48.286;7.812;2023-04-15T14:51:24;18.90;31.20
72206;DHT22;60111;48.286;7.812;2023-04-15T14:53:57;18.80;31.80
72206;DHT22;60111;48.286;7.812;2023-04-15T14:56:29;18.70;32.10
72206;DHT22;60111;48.286;7.812;2023-04-15T14:59:02;18.70;30.90
72206;DHT22;60111;48.286;7.812;2023-04-15T15:01:37;18.70;31.60
72206;DHT22;60111;48.286;7.812;2023-04-15T15:04:11;18.80;32.40
72206;DHT22;60111;48.286;7.812;2023-04-15T15:06:45;18.70;31.70
72206;DHT22;60111;48.286;7.812;2023-04-15T15:09:18;18.70;32.10
72206;DHT22;60111;48.286;7.812;2023-04-15T15:11:52;18.70;32.20
72206;DHT22;60111;48.286;7.812;2023-04-15T15:14:25;18.70;31.60
72206;DHT22;60111;48.286;7.812;2023-04-15T15:16:58;18.60;32.00
72206;DHT22;60111;48.286;7.812;2023-04-15T15:19:31;18.50;32.60
72206;DHT22;60111;48.286;7.812;2023-04-15T15:22:04;18.40;33.40
72206;DHT22;60111;48.286;7.812;2023-04-15T15:24:36;18.40;34.20
72206;DHT22;60111;48.286;7.812;2023-04-15T15:27:09;18.40;32.90
72206;DHT22;60111;48.286;7.812;2023-04-15T15:29:42;18.30;33.80
72206;DHT22;60111;48.286;7.812;2023-04-15T15:32:15;18.50;33.70
72206;DHT22;60111;48.286;7.812;2023-04-15T15:34:47;18.40;33.40
72206;DHT22;60111;48.286;7.812;2023-04-15T15:37:20;18.40;33.00
72206;DHT22;60111;48.286;7.812;2023-04-15T15:39:53;18.40;33.00
72206;DHT22;60111;48.286;7.812;2023-04-15T15:42:26;18.30;33.80
72206;DHT22;60111;48.286;7.812;2023-04-15T15:45:02;18.30;34.10
72206;DHT22;60111;48.286;7.812;2023-04-15T15:47:36;18.30;34.60
72206;DHT22;60111;48.286;7.812;2023-04-15T15:50:09;18.30;34.60
72206;DHT22;60111;48.286;7.812;2023-04-15T15:52:43;18.30;34.30
72206;DHT22;60111;48.286;7.812;2023-04-15T15:55:15;18.20;34.60
72206;DHT22;60111;48.286;7.812;2023-04-15T15:57:48;18.20;34.40
72206;DHT22;60111;48.286;7.812;2023-04-15T16:00:21;18.20;34.70
72206;DHT22;60111;48.286;7.812;2023-04-15T16:02:57;18.20;34.80
72206;DHT22;60111;48.286;7.812;2023-04-15T16:05:30;18.20;34.60
72206;DHT22;60111;48.286;7.812;2023-04-15T16:08:02;18.10;34.50
72206;DHT22;60111;48.286;7.812;2023-04-15T16:10:35;18.10;34.80
72206;DHT22;60111;48.286;7.812;2023-04-15T16:13:09;18.10;35.30
72206;DHT22;60111;48.286;7.812;2023-04-15T16:15:42;17.90;35.10
72206;DHT22;60111;48.286;7.812;2023-04-15T16:18:15;17.80;36.30